Página principal
METAR-TAF:

METAR-TAF

Aeroportos :

Aeroporto Internacional de Chongqing Jiangbei

Chongqing, China

latitude: 29-31N, longitude: 106-29E, altura: 351 m

Observação actual do tempo

O boletim foi feito há 48 minutos, às 00:00 UTC
Vento calmo
Temperatura 24°C
Humidade 94%
Pressão 1011 hPa
Visibilidade 10 km ou mais
Nuvens dispersasa uma altura de 900 ft
Nuvens dispersasa uma altura de 2200 ft
aguaceiros fracos de chuva

METAR: ZUCK 200000Z 00000MPS 9999 R02L/P2000 R02R/P2000 R03/1100 -SHRA SCT009 SCT022 24/23 Q1011 NOSIG

Hora: 08:48 (00:48 UTC)

Previsão

O boletim foi feito há 5 horas e 44 minutos, às 19:04 UTC
Previsão válida de 20 às 00 UTC a 20 às 24 UTC
Vento 6 kt de su-sudoeste
Visibilidade: 5000 m
Nuvens dispersasa uma altura de 2000 ft
Encobertoa uma altura de 4000 ft
neblina

TAF: ZUCK 191904Z 2000/2024 20003MPS 5000 BR SCT020 OVC040 TX27/2008Z TN24/2022Z

Observações e previsões do tempo de mais de 4000 aeroportos (mensagens METAR e TAF).

As estações disponíveis são os pontos amarelos e vermelhos sobre o mapa.

Mova o rato sobre o mapa para ver o nome da estação.

Depois clique no ponto para visualizar as observações e previsões meteorológicas.

Para alterar o mapa : clique nos botões verdes com uma cruz preta para aumentar o zoom; no botão verde com uma pitada de zoom; ou nas setas verdes para mapas adjacentes.


METAR-TAF: